Time;durP1;ratioP1;P1;durP2;ratioP2;P2;SDS_P1;SDS_P2;PMS_P1;PMS_P2;Temp;Humidity;BMP_temperature;BMP_pressure;BME280_temperature;BME280_humidity;BME280_pressure;Samples;Min_cycle;Max_cycle;Signal;HPM_P1;HPM_P2
2020/12/13 00:01:00;;;;;;;41.42;22.25;;;;;;;6.28;94.15;99441.16;5014116;28;20056;-80
2020/12/13 00:03:27;;;;;;;42.10;23.08;;;;;;;6.33;93.74;99445.28;5013977;28;20059;-77
2020/12/13 00:05:54;;;;;;;42.30;23.42;;;;;;;6.32;93.49;99448.84;5015141;28;20518;-78
2020/12/13 00:08:20;;;;;;;39.72;21.73;;;;;;;6.35;93.96;99447.84;5010799;28;20049;-77
2020/12/13 00:10:48;;;;;;;41.67;22.67;;;;;;;6.36;93.41;99448.69;5003570;28;20046;-76
2020/12/13 00:13:15;;;;;;;40.53;21.92;;;;;;;6.34;93.41;99451.41;5010828;28;20485;-78
2020/12/13 00:15:41;;;;;;;39.65;21.95;;;;;;;6.37;93.43;99447.78;5004685;28;20056;-77
2020/12/13 00:18:08;;;;;;;39.13;21.77;;;;;;;6.34;92.97;99451.41;5006538;28;20133;-76
2020/12/13 00:20:34;;;;;;;37.97;22.30;;;;;;;6.33;93.58;99453.16;5021943;28;20046;-77
2020/12/13 00:23:00;;;;;;;35.78;20.63;;;;;;;6.31;93.23;99446.28;5009059;28;20485;-76
2020/12/13 00:25:27;;;;;;;38.83;21.80;;;;;;;6.32;93.43;99447.97;5019682;28;20054;-76
2020/12/13 00:27:53;;;;;;;36.65;21.45;;;;;;;6.33;93.53;99453.16;5015643;28;20052;-76
2020/12/13 00:30:20;;;;;;;35.42;20.52;;;;;;;6.36;93.29;99449.56;5013716;28;20054;-76
2020/12/13 00:32:47;;;;;;;38.88;21.42;;;;;;;6.37;93.59;99453.91;5008353;28;20165;-80
2020/12/13 00:35:16;;;;;;;34.75;20.02;;;;;;;6.36;93.26;99453.97;5023594;28;20097;-78
2020/12/13 00:37:42;;;;;;;37.40;20.02;;;;;;;6.35;93.56;99458.38;5033876;28;20041;-75
2020/12/13 00:40:09;;;;;;;36.97;21.08;;;;;;;6.38;93.21;99460.88;5021395;28;20050;-76
2020/12/13 00:42:35;;;;;;;39.95;21.58;;;;;;;6.41;93.30;99466.00;5035388;28;20117;-76
2020/12/13 00:45:02;;;;;;;39.47;21.45;;;;;;;6.41;92.97;99467.75;5032888;28;20106;-77
2020/12/13 00:47:28;;;;;;;36.03;20.55;;;;;;;6.40;92.92;99466.06;5029053;28;20132;-76
2020/12/13 00:49:54;;;;;;;34.95;20.38;;;;;;;6.34;92.81;99461.91;5033092;28;20073;-77
2020/12/13 00:52:21;;;;;;;37.58;21.33;;;;;;;6.36;92.88;99467.09;5036885;28;20084;-81
2020/12/13 00:54:48;;;;;;;38.90;23.38;;;;;;;6.37;93.18;99463.56;5029606;28;20487;-76
2020/12/13 00:57:14;;;;;;;39.83;22.17;;;;;;;6.36;93.23;99464.47;5015716;28;20046;-76
2020/12/13 00:59:41;;;;;;;35.53;20.63;;;;;;;6.39;93.27;99470.47;5010269;28;20046;-76
2020/12/13 01:02:07;;;;;;;37.92;21.10;;;;;;;6.38;93.50;99479.28;5015336;28;20330;-76
2020/12/13 01:04:34;;;;;;;38.42;21.48;;;;;;;6.39;93.11;99474.88;5013819;28;20116;-76
2020/12/13 01:07:02;;;;;;;39.67;22.27;;;;;;;6.42;93.40;99486.09;4996246;28;20050;-80
2020/12/13 01:09:29;;;;;;;40.03;22.98;;;;;;;6.36;93.38;99478.47;5015385;28;20054;-75
2020/12/13 01:11:56;;;;;;;45.05;23.42;;;;;;;6.41;93.45;99484.41;5015957;28;20580;-76
2020/12/13 01:14:24;;;;;;;40.90;22.98;;;;;;;6.41;93.51;99489.66;5022303;28;20145;-78
2020/12/13 01:16:54;;;;;;;38.22;22.35;;;;;;;6.45;93.19;99495.66;5006779;28;20092;-76
2020/12/13 01:19:22;;;;;;;41.38;23.05;;;;;;;6.41;92.82;99497.53;4999089;28;20077;-76
2020/12/13 01:21:49;;;;;;;46.17;24.60;;;;;;;6.39;93.36;99496.75;4995590;28;20058;-77
2020/12/13 01:24:18;;;;;;;47.33;24.80;;;;;;;6.41;93.47;99501.94;5009678;28;20139;-76
2020/12/13 01:26:45;;;;;;;46.88;24.58;;;;;;;6.40;93.30;99501.09;5008697;28;20076;-80
2020/12/13 01:29:11;;;;;;;40.58;22.73;;;;;;;6.44;93.38;99510.56;4993467;28;20046;-78
2020/12/13 01:31:39;;;;;;;45.67;24.45;;;;;;;6.46;93.22;99513.09;5013543;28;20046;-75
2020/12/13 01:34:07;;;;;;;42.45;22.92;;;;;;;6.46;93.26;99508.69;5000160;28;20579;-76
2020/12/13 01:36:34;;;;;;;42.22;22.55;;;;;;;6.48;93.57;99512.13;5011591;28;20136;-77
2020/12/13 01:39:01;;;;;;;43.33;23.58;;;;;;;6.49;93.09;99513.81;5003066;28;20038;-75
2020/12/13 01:41:29;;;;;;;45.03;22.58;;;;;;;6.49;93.33;99513.81;4993186;28;20116;-76
2020/12/13 01:44:06;;;;;;;43.00;23.38;;;;;;;6.50;93.34;99518.16;4993323;28;20062;-78
2020/12/13 01:46:33;;;;;;;42.20;22.92;;;;;;;6.50;93.37;99510.28;4996909;28;20050;-76
2020/12/13 01:49:05;;;;;;;41.97;22.63;;;;;;;6.50;93.47;99526.06;5011162;28;20065;-75
2020/12/13 01:54:14;;;;;;;42.60;22.60;;;;;;;6.51;93.14;99526.91;5002322;28;20073;-76
2020/12/13 01:56:45;;;;;;;39.33;21.90;;;;;;;6.49;93.11;99526.13;4975637;28;20057;-76
2020/12/13 01:59:15;;;;;;;40.83;20.63;;;;;;;6.52;93.15;99528.63;4991533;28;20090;-76
2020/12/13 02:04:22;;;;;;;37.10;20.63;;;;;;;6.53;93.08;99525.94;5139938;23;20065;-87
2020/12/13 02:06:52;;;;;;;39.17;20.33;;;;;;;6.50;92.85;99526.06;5055445;28;20052;-90
2020/12/13 02:09:33;;;;;;;44.08;22.10;;;;;;;6.47;93.38;99523.56;5034740;28;20078;-88
2020/12/13 02:11:59;;;;;;;38.72;20.23;;;;;;;6.51;93.32;99538.28;5035929;28;20045;-88
2020/12/13 02:14:26;;;;;;;45.30;22.83;;;;;;;6.55;93.25;99545.13;5042715;28;20093;-88
2020/12/13 02:16:53;;;;;;;42.17;20.45;;;;;;;6.53;93.19;99541.72;5019399;28;20056;-87
2020/12/13 02:19:21;;;;;;;45.05;22.30;;;;;;;6.56;93.38;99546.84;5047612;28;20056;-87
2020/12/13 02:21:50;;;;;;;44.45;21.98;;;;;;;6.52;93.34;99545.25;5034833;28;20026;-87
2020/12/13 02:24:21;;;;;;;45.20;22.52;;;;;;;6.51;93.25;99548.81;5033191;28;20437;-87
2020/12/13 02:26:48;;;;;;;44.58;22.77;;;;;;;6.49;93.49;99550.66;5023618;28;20447;-88
2020/12/13 02:29:15;;;;;;;46.03;23.95;;;;;;;6.53;93.69;99568.00;5039700;28;20053;-87
2020/12/13 02:31:42;;;;;;;50.83;23.27;;;;;;;6.58;93.91;99570.44;5019134;28;20053;-87
2020/12/13 02:34:10;;;;;;;48.97;23.65;;;;;;;6.60;93.91;99558.94;5019851;28;20046;-87
2020/12/13 02:36:36;;;;;;;50.08;23.65;;;;;;;6.58;93.88;99558.16;5019935;28;20076;-88
2020/12/13 02:39:09;;;;;;;48.47;23.45;;;;;;;6.60;93.73;99564.19;5030370;28;20053;-87
2020/12/13 02:41:38;;;;;;;46.72;23.85;;;;;;;6.58;94.04;99565.19;5036240;28;20077;-87
2020/12/13 02:44:09;;;;;;;46.25;24.13;;;;;;;6.48;93.85;99564.72;5018820;28;20052;-88
2020/12/13 02:46:36;;;;;;;49.78;23.77;;;;;;;6.60;93.96;99581.75;5021938;28;20049;-88
2020/12/13 02:49:03;;;;;;;45.03;24.08;;;;;;;6.64;93.85;99581.53;5034844;28;20069;-87
2020/12/13 02:51:29;;;;;;;46.70;23.75;;;;;;;6.64;93.91;99581.53;5037881;28;20407;-86
2020/12/13 02:53:55;;;;;;;48.88;23.48;;;;;;;6.64;94.21;99592.06;5045164;28;20054;-87
2020/12/13 02:56:24;;;;;;;49.83;25.17;;;;;;;6.64;94.21;99589.44;5020987;28;20077;-86
2020/12/13 02:58:53;;;;;;;49.90;24.70;;;;;;;6.65;94.09;99585.03;5026175;28;20053;-87
2020/12/13 03:01:19;;;;;;;47.30;23.85;;;;;;;6.60;94.10;99585.25;5047330;28;20136;-87
2020/12/13 03:03:46;;;;;;;46.08;23.90;;;;;;;6.60;93.85;99594.91;5047692;28;20045;-87
2020/12/13 03:06:13;;;;;;;48.88;24.58;;;;;;;6.56;93.94;99594.19;5035864;28;20382;-88
2020/12/13 03:08:39;;;;;;;48.95;24.15;;;;;;;6.53;94.38;99578.53;5023470;28;20037;-88
2020/12/13 03:11:06;;;;;;;49.25;25.08;;;;;;;6.56;94.09;99599.44;5033199;28;20046;-88
2020/12/13 03:13:32;;;;;;;46.92;23.45;;;;;;;6.54;94.73;99589.91;5027788;28;20056;-87
2020/12/13 03:16:00;;;;;;;49.55;24.90;;;;;;;6.56;94.43;99588.94;5036294;28;20076;-87
2020/12/13 03:18:27;;;;;;;54.80;25.27;;;;;;;6.55;94.88;99587.22;5054378;28;20045;-87
2020/12/13 03:20:53;;;;;;;52.35;25.33;;;;;;;6.56;94.60;99586.28;5049001;28;20041;-87
2020/12/13 03:23:23;;;;;;;48.90;24.30;;;;;;;6.58;94.49;99592.34;5036776;28;20055;-88
2020/12/13 03:25:49;;;;;;;50.50;24.38;;;;;;;6.57;94.93;99595.91;5046144;28;20069;-86
2020/12/13 03:28:16;;;;;;;45.75;23.25;;;;;;;6.59;94.33;99599.31;5035200;28;20084;-88
2020/12/13 03:30:42;;;;;;;44.03;23.35;;;;;;;6.62;94.63;99614.94;5040493;28;20138;-87
2020/12/13 03:33:09;;;;;;;41.42;22.85;;;;;;;6.59;94.11;99606.34;5029602;28;20070;-88
2020/12/13 03:35:36;;;;;;;46.15;24.02;;;;;;;6.57;94.50;99616.94;5026670;28;20056;-88
2020/12/13 03:38:05;;;;;;;44.75;23.70;;;;;;;6.58;94.59;99621.28;5033848;28;20457;-87
2020/12/13 03:40:31;;;;;;;48.25;23.23;;;;;;;6.60;94.62;99619.44;5038361;28;20164;-87
2020/12/13 03:42:58;;;;;;;46.47;24.30;;;;;;;6.59;94.27;99619.50;5041207;28;20056;-87
2020/12/13 03:45:25;;;;;;;48.72;24.33;;;;;;;6.57;94.61;99627.47;5040074;28;20073;-88
2020/12/13 03:47:52;;;;;;;47.97;24.00;;;;;;;6.60;94.14;99637.00;5042620;28;20118;-87
2020/12/13 03:50:19;;;;;;;42.38;23.30;;;;;;;6.56;94.39;99627.53;5046086;28;20046;-87
2020/12/13 03:52:46;;;;;;;45.40;23.25;;;;;;;6.54;94.58;99621.47;5035243;28;20388;-88
2020/12/13 03:55:12;;;;;;;47.10;23.95;;;;;;;6.45;94.43;99630.63;5025075;28;20053;-88
2020/12/13 03:57:38;;;;;;;42.97;22.58;;;;;;;6.48;94.73;99642.75;5020428;28;20050;-88
2020/12/13 04:00:08;;;;;;;46.38;25.15;;;;;;;6.50;95.01;99639.16;5016208;28;20070;-88
2020/12/13 04:02:35;;;;;;;47.00;24.42;;;;;;;6.51;94.79;99637.38;5020587;28;20116;-86
2020/12/13 04:05:02;;;;;;;46.17;24.05;;;;;;;6.52;94.99;99641.72;5035921;28;20135;-87
2020/12/13 04:07:28;;;;;;;47.22;23.42;;;;;;;6.49;95.25;99645.34;5024569;28;20061;-89
2020/12/13 04:09:54;;;;;;;44.10;23.48;;;;;;;6.50;95.32;99646.19;5020906;28;20073;-89
2020/12/13 04:12:21;;;;;;;41.05;22.27;;;;;;;6.48;95.26;99648.88;5032455;28;20084;-88
2020/12/13 04:14:49;;;;;;;45.80;23.27;;;;;;;6.49;95.03;99645.34;5039588;28;20056;-89
2020/12/13 04:17:17;;;;;;;45.22;23.65;;;;;;;6.52;94.96;99650.47;5029222;28;20070;-88
2020/12/13 04:19:45;;;;;;;41.53;22.70;;;;;;;6.54;95.08;99640.75;5031036;28;20045;-89
2020/12/13 04:22:14;;;;;;;40.67;22.00;;;;;;;6.59;94.88;99651.06;5046124;28;20051;-88
2020/12/13 04:24:41;;;;;;;40.92;22.40;;;;;;;6.62;94.87;99656.19;5042997;28;20049;-89
2020/12/13 04:27:21;;;;;;;39.75;20.95;;;;;;;6.63;94.56;99653.50;5055272;28;20044;-87
2020/12/13 04:29:48;;;;;;;39.03;21.67;;;;;;;6.61;94.71;99663.22;5047879;28;20112;-88
2020/12/13 04:32:14;;;;;;;39.47;21.10;;;;;;;6.62;94.39;99666.69;5055551;28;20114;-88
2020/12/13 04:34:41;;;;;;;37.97;20.92;;;;;;;6.63;94.39;99668.41;5045750;28;20049;-88
2020/12/13 04:37:08;;;;;;;35.55;20.90;;;;;;;6.61;94.23;99667.66;5048019;28;20076;-87
2020/12/13 04:39:36;;;;;;;39.15;21.17;;;;;;;6.58;94.13;99673.91;5039222;28;20038;-87
2020/12/13 04:42:03;;;;;;;35.33;19.80;;;;;;;6.54;94.06;99669.66;5044691;28;20046;-87
2020/12/13 04:44:30;;;;;;;35.65;20.88;;;;;;;6.47;94.10;99672.59;5045669;28;20140;-88
2020/12/13 04:47:03;;;;;;;35.35;19.65;;;;;;;6.40;94.27;99671.16;5024757;28;20392;-87
2020/12/13 04:49:31;;;;;;;41.00;21.10;;;;;;;6.40;94.81;99674.66;5033439;28;20141;-88
2020/12/13 04:52:05;;;;;;;37.72;21.15;;;;;;;6.38;94.85;99678.25;5042115;28;20042;-86
2020/12/13 04:54:32;;;;;;;39.75;22.00;;;;;;;6.33;94.95;99670.56;5041590;28;20049;-87
2020/12/13 04:56:59;;;;;;;35.15;20.30;;;;;;;6.37;94.85;99681.81;5028679;28;20053;-86
2020/12/13 04:59:30;;;;;;;37.53;21.33;;;;;;;6.38;95.14;99686.16;5032766;28;20049;-86
2020/12/13 05:01:59;;;;;;;34.58;19.55;;;;;;;6.37;95.07;99693.19;5039271;28;20101;-86
2020/12/13 05:04:26;;;;;;;35.67;19.13;;;;;;;6.38;95.45;99689.63;5053709;28;20663;-87
2020/12/13 05:06:53;;;;;;;34.50;20.27;;;;;;;6.35;95.45;99684.50;5041208;28;20045;-85
2020/12/13 05:09:20;;;;;;;30.73;19.10;;;;;;;6.38;94.93;99700.16;5050706;28;20431;-87
2020/12/13 05:11:47;;;;;;;37.30;20.42;;;;;;;6.36;95.20;99701.13;5047927;28;20052;-87
2020/12/13 05:14:14;;;;;;;34.13;20.42;;;;;;;6.27;95.03;99681.34;5033198;28;20057;-87
2020/12/13 05:16:40;;;;;;;35.63;21.08;;;;;;;6.33;95.14;99699.47;5025246;28;20061;-87
2020/12/13 05:19:08;;;;;;;35.72;20.02;;;;;;;6.32;94.91;99703.88;5024812;28;20072;-87
2020/12/13 05:21:36;;;;;;;33.75;19.13;;;;;;;6.31;95.38;99693.41;5028893;28;20145;-88
2020/12/13 05:24:05;;;;;;;34.65;20.63;;;;;;;6.32;95.10;99700.41;5038392;28;20051;-88
2020/12/13 05:26:32;;;;;;;39.03;21.00;;;;;;;6.33;95.17;99702.97;5031825;28;20337;-87
2020/12/13 05:29:02;;;;;;;32.22;19.50;;;;;;;6.31;94.98;99699.53;5043424;28;20052;-88
2020/12/13 05:31:31;;;;;;;34.97;19.63;;;;;;;6.32;95.56;99706.50;5024893;28;20104;-87
2020/12/13 05:36:29;;;;;;;32.97;19.00;;;;;;;6.38;95.34;99712.44;5032269;28;20061;-86
2020/12/13 05:38:58;;;;;;;34.35;19.15;;;;;;;6.37;95.52;99713.38;5039921;28;20049;-89
2020/12/13 05:41:38;;;;;;;36.10;19.52;;;;;;;6.38;95.09;99721.19;5028217;28;20103;-89
2020/12/13 05:50:26;;;;;;;34.95;20.75;;;;;;;6.40;95.25;99729.03;5038072;28;20420;-88
2020/12/13 05:52:54;;;;;;;38.00;20.97;;;;;;;6.38;95.13;99726.44;5029816;28;20046;-88
2020/12/13 05:55:25;;;;;;;36.58;20.83;;;;;;;6.31;95.04;99719.72;5021814;28;20140;-88
2020/12/13 05:57:53;;;;;;;36.53;21.80;;;;;;;6.43;95.25;99739.44;5019926;28;20050;-89
2020/12/13 06:00:23;;;;;;;39.08;21.73;;;;;;;6.44;95.29;99736.75;5029656;28;20053;-89
2020/12/13 06:02:53;;;;;;;37.50;20.05;;;;;;;6.46;95.34;99740.13;5021246;28;20069;-89
2020/12/13 06:05:22;;;;;;;40.40;22.25;;;;;;;6.45;95.10;99740.22;5039212;28;20053;-89
2020/12/13 06:07:51;;;;;;;35.83;21.13;;;;;;;6.53;94.95;99740.75;5023861;28;20097;-89
2020/12/13 06:10:35;;;;;;;35.92;21.17;;;;;;;6.58;95.02;99739.66;5028506;28;20166;-88
2020/12/13 06:13:08;;;;;;;37.95;21.10;;;;;;;6.60;94.82;99750.13;5026971;28;20058;-88
2020/12/13 06:15:37;;;;;;;38.50;20.77;;;;;;;6.61;94.45;99757.91;5030760;28;20046;-87
2020/12/13 06:18:05;;;;;;;34.20;20.33;;;;;;;6.63;93.99;99763.13;5023029;28;20118;-87
2020/12/13 06:20:33;;;;;;;38.08;21.55;;;;;;;6.62;94.08;99757.00;5028253;28;20084;-90
2020/12/13 06:23:02;;;;;;;37.75;20.83;;;;;;;6.61;93.92;99767.63;5039564;28;20049;-88
2020/12/13 06:25:31;;;;;;;39.80;20.88;;;;;;;6.56;94.09;99764.31;5028612;28;20050;-89
2020/12/13 06:28:01;;;;;;;38.70;21.42;;;;;;;6.52;94.13;99766.19;5036388;28;20053;-89
2020/12/13 06:30:39;;;;;;;34.20;20.52;;;;;;;6.49;94.40;99770.72;5038737;28;20117;-90
2020/12/13 06:33:05;;;;;;;35.22;21.30;;;;;;;6.47;94.41;99769.91;5024475;28;20073;-88
2020/12/13 06:35:36;;;;;;;35.47;20.70;;;;;;;6.48;94.57;99774.25;5036782;28;20068;-88
2020/12/13 06:38:16;;;;;;;35.85;19.83;;;;;;;6.48;94.74;99779.53;5045369;28;20038;-86
2020/12/13 06:40:50;;;;;;;36.50;21.48;;;;;;;6.45;95.22;99775.28;5035774;28;20049;-86
2020/12/13 06:43:19;;;;;;;37.97;21.70;;;;;;;6.45;94.50;99785.78;5049320;28;20045;-86
2020/12/13 06:46:06;;;;;;;38.55;21.48;;;;;;;6.44;94.74;99786.72;5026651;28;20042;-86
2020/12/13 06:48:35;;;;;;;36.33;20.63;;;;;;;6.41;94.77;99789.44;5023375;28;20072;-86
2020/12/13 06:51:08;;;;;;;37.97;21.65;;;;;;;6.42;95.17;99791.16;5036632;28;20068;-86
2020/12/13 06:53:35;;;;;;;;;;;;;;;6.46;95.29;99795.38;5017394;28;20052;-86
2020/12/13 06:56:12;;;;;;;36.58;20.80;;;;;;;6.44;94.99;99802.50;5025461;28;19925;-87
2020/12/13 06:58:43;;;;;;;34.60;20.35;;;;;;;6.44;95.13;99804.25;5039203;28;20405;-86
2020/12/13 07:01:15;;;;;;;38.55;21.35;;;;;;;6.41;95.31;99805.22;5031179;28;20129;-86
2020/12/13 07:03:42;;;;;;;36.85;20.88;;;;;;;6.42;94.89;99809.56;5026102;28;20111;-87
2020/12/13 07:06:15;;;;;;;40.03;21.90;;;;;;;6.43;95.19;99815.69;5036708;28;20065;-87
2020/12/13 07:08:48;;;;;;;37.53;21.27;;;;;;;6.34;95.11;99801.13;5032876;28;20079;-86
2020/12/13 07:11:23;;;;;;;37.50;21.15;;;;;;;6.43;95.04;99818.31;5038660;28;20033;-86
2020/12/13 07:13:52;;;;;;;36.75;20.17;;;;;;;6.43;94.93;99819.19;5033515;28;20065;-86
2020/12/13 07:16:35;;;;;;;36.20;20.90;;;;;;;6.47;95.47;99825.16;5036269;28;20054;-85
2020/12/13 07:19:07;;;;;;;39.08;21.40;;;;;;;6.54;96.08;99822.25;5042391;28;20033;-87
2020/12/13 07:21:36;;;;;;;40.58;21.23;;;;;;;6.58;95.33;99831.72;5042511;28;20554;-87
2020/12/13 07:24:08;;;;;;;40.20;22.67;;;;;;;6.61;95.31;99830.75;5050291;28;20046;-90
2020/12/13 07:26:39;;;;;;;35.75;21.17;;;;;;;6.48;94.81;99822.47;5043375;28;20049;-86
2020/12/13 07:29:25;;;;;;;37.20;21.02;;;;;;;6.51;94.94;99832.88;5030938;28;20092;-87
2020/12/13 07:31:55;;;;;;;36.13;20.80;;;;;;;6.53;94.72;99838.06;5022902;28;20112;-88
2020/12/13 07:34:26;;;;;;;38.00;20.63;;;;;;;6.41;94.33;99838.56;5027352;28;20095;-87
2020/12/13 07:36:54;;;;;;;38.90;21.60;;;;;;;6.44;94.58;99847.19;5020675;28;20076;-89
2020/12/13 07:39:29;;;;;;;;;;;;;;;6.49;94.73;99855.75;5032205;28;20124;-89
2020/12/13 07:41:57;;;;;;;37.08;21.38;;;;;;;6.30;94.35;99823.19;5029817;28;19921;-88
2020/12/13 07:44:25;;;;;;;42.03;22.45;;;;;;;6.32;94.75;99839.75;5028828;28;20049;-89
2020/12/13 07:46:55;;;;;;;41.28;22.17;;;;;;;6.40;94.76;99853.47;5041128;28;20056;-88
2020/12/13 07:49:24;;;;;;;42.60;22.60;;;;;;;6.48;94.90;99869.81;5045409;28;20057;-88
2020/12/13 07:51:53;;;;;;;48.22;23.30;;;;;;;6.36;95.01;99853.66;5041551;28;20045;-89
2020/12/13 07:54:29;;;;;;;46.35;23.98;;;;;;;6.48;95.01;99876.84;5030243;28;20076;-88
2020/12/13 07:56:57;;;;;;;50.38;23.92;;;;;;;6.47;94.98;99875.97;5037972;28;20112;-90
2020/12/13 07:59:29;;;;;;;40.78;21.50;;;;;;;6.41;95.25;99862.22;5029461;28;20505;-89
2020/12/13 08:01:57;;;;;;;42.07;21.13;;;;;;;6.45;95.11;99867.31;5031985;28;20543;-88
2020/12/13 08:04:38;;;;;;;42.17;22.20;;;;;;;6.51;95.37;99876.72;5038664;28;20046;-86
2020/12/13 08:07:10;;;;;;;49.47;24.80;;;;;;;6.53;95.54;99872.28;5050190;28;20447;-86
2020/12/13 08:09:42;;;;;;;46.03;23.10;;;;;;;6.54;95.33;99874.84;5047207;28;20037;-85
2020/12/13 08:12:13;;;;;;;42.97;22.27;;;;;;;6.57;95.08;99884.41;5050369;28;20060;-87
2020/12/13 08:14:40;;;;;;;43.17;22.90;;;;;;;6.55;95.33;99889.72;5048873;28;20523;-86
2020/12/13 08:17:06;;;;;;;41.25;22.05;;;;;;;6.47;95.50;99873.34;5053254;28;20072;-86
2020/12/13 08:19:41;;;;;;;37.78;20.83;;;;;;;6.58;95.61;99897.50;5045023;28;20045;-88
2020/12/13 08:22:16;;;;;;;41.47;21.30;;;;;;;6.59;95.34;99901.84;5036062;28;20611;-89
2020/12/13 08:24:43;;;;;;;38.05;22.38;;;;;;;6.63;95.60;99899.94;5038050;28;20132;-87
2020/12/13 08:27:13;;;;;;;34.67;19.75;;;;;;;6.67;95.57;99898.91;5042428;28;20045;-85
2020/12/13 08:29:50;;;;;;;35.30;19.75;;;;;;;6.68;95.21;99898.84;5047765;28;20316;-89
2020/12/13 08:32:29;;;;;;;38.40;20.98;;;;;;;6.74;95.35;99899.53;5052224;28;20069;-87
2020/12/13 08:35:20;;;;;;;37.78;20.60;;;;;;;6.73;95.30;99893.41;5048761;28;20046;-87
2020/12/13 08:37:53;;;;;;;35.83;19.58;;;;;;;6.79;95.14;99910.72;5040508;28;20053;-87
2020/12/13 08:40:38;;;;;;;39.83;22.17;;;;;;;6.84;95.04;99900.88;5045614;28;20033;-86
2020/12/13 08:43:06;;;;;;;39.97;21.73;;;;;;;6.86;95.31;99906.94;5046085;28;20303;-87
2020/12/13 08:45:35;;;;;;;37.42;20.33;;;;;;;6.90;95.52;99912.03;5042908;28;20053;-86
2020/12/13 08:48:08;;;;;;;38.83;21.48;;;;;;;6.86;95.27;99901.69;5036439;28;20060;-89
2020/12/13 08:50:39;;;;;;;37.92;21.73;;;;;;;6.98;95.03;99914.34;5040063;28;20115;-86
2020/12/13 08:53:26;;;;;;;37.70;21.33;;;;;;;6.97;94.41;99921.38;5031185;28;20049;-85
2020/12/13 08:56:06;;;;;;;35.53;20.38;;;;;;;6.99;95.06;99931.84;5040510;28;20085;-86
2020/12/13 08:58:51;;;;;;;36.42;21.50;;;;;;;6.98;94.60;99925.72;5035687;28;20050;-88
2020/12/13 09:01:23;;;;;;;32.97;20.65;;;;;;;7.03;94.18;99936.09;5042315;28;20046;-88
2020/12/13 09:03:51;;;;;;;38.80;21.27;;;;;;;7.05;94.50;99928.97;5032591;28;20096;-86
2020/12/13 09:07:12;;;;;;;39.28;22.45;;;;;;;7.08;94.04;99939.41;5035998;28;20056;-88
2020/12/13 09:09:39;;;;;;;41.85;22.73;;;;;;;7.12;94.27;99933.06;5033635;28;20058;-89
2020/12/13 09:12:18;;;;;;;42.70;23.75;;;;;;;7.15;93.91;99940.84;5032676;28;20042;-87
2020/12/13 09:14:45;;;;;;;44.20;23.92;;;;;;;7.23;93.98;99943.19;5028482;28;20088;-88
2020/12/13 09:17:22;;;;;;;48.92;24.85;;;;;;;7.28;93.72;99951.75;5030004;28;20045;-88
2020/12/13 09:19:52;;;;;;;52.08;26.75;;;;;;;7.32;93.38;99956.84;5038692;28;20488;-88
2020/12/13 09:22:22;;;;;;;45.28;24.52;;;;;;;7.34;93.27;99959.41;5031984;28;20132;-88
2020/12/13 09:24:50;;;;;;;43.80;23.85;;;;;;;7.37;93.14;99970.69;5040326;28;20160;-88
2020/12/13 09:27:23;;;;;;;42.70;22.80;;;;;;;7.46;93.89;99961.53;5037441;28;20049;-89
2020/12/13 09:29:51;;;;;;;42.38;23.15;;;;;;;7.58;93.87;99975.97;5034153;28;20050;-88
2020/12/13 09:32:21;;;;;;;42.70;22.52;;;;;;;7.61;93.20;99979.34;5040055;28;20057;-88
2020/12/13 09:34:57;;;;;;;37.75;21.73;;;;;;;7.73;92.73;99977.97;5044209;28;20399;-87
2020/12/13 09:37:24;;;;;;;35.80;21.83;;;;;;;7.69;90.96;99986.94;5036988;28;20050;-87
2020/12/13 09:39:53;;;;;;;37.22;21.13;;;;;;;7.59;90.61;99983.81;5035371;28;20052;-85
2020/12/13 09:42:21;;;;;;;35.92;20.85;;;;;;;7.56;90.75;99989.19;5032313;28;20140;-86
2020/12/13 09:44:49;;;;;;;36.95;19.92;;;;;;;7.51;91.13;99995.59;5032154;28;20125;-87
2020/12/13 09:47:30;;;;;;;37.58;21.40;;;;;;;7.44;91.25;99991.50;5041644;28;20068;-87
2020/12/13 09:49:59;;;;;;;35.05;20.95;;;;;;;7.43;91.83;99995.03;5034665;28;20053;-87
2020/12/13 09:52:25;;;;;;;37.03;21.27;;;;;;;7.42;91.55;100007.34;5044609;28;20041;-87
2020/12/13 09:55:06;;;;;;;;;;;;;;;7.45;91.96;100007.22;5042960;28;20049;-87
2020/12/13 09:57:33;;;;;;;33.17;20.02;;;;;;;7.48;91.75;100008.91;5044260;28;19920;-88
2020/12/13 10:00:01;;;;;;;34.20;20.75;;;;;;;7.53;91.99;100013.06;5044473;28;20114;-88
2020/12/13 10:02:28;;;;;;;29.90;19.80;;;;;;;7.58;92.03;100010.22;5041121;28;20076;-87
2020/12/13 10:04:55;;;;;;;33.85;20.65;;;;;;;7.56;91.52;100004.16;5041175;28;20029;-88
2020/12/13 10:09:58;;;;;;;32.35;20.85;;;;;;;7.63;91.40;100003.84;5030890;28;20081;-87
2020/12/13 10:12:25;;;;;;;33.13;21.15;;;;;;;7.56;91.62;99990.97;5041415;28;20053;-88
2020/12/13 10:14:53;;;;;;;30.85;18.98;;;;;;;7.70;91.73;100013.25;5050189;28;20037;-88
2020/12/13 10:17:20;;;;;;;31.40;20.27;;;;;;;7.72;91.62;100007.88;5041960;28;20500;-86
2020/12/13 10:19:51;;;;;;;31.95;19.27;;;;;;;7.65;91.24;99986.22;5042438;28;20053;-87
2020/12/13 10:22:18;;;;;;;31.50;19.70;;;;;;;7.74;91.09;100003.41;5039950;28;20061;-89
2020/12/13 10:24:49;;;;;;;27.90;19.25;;;;;;;7.82;91.33;100014.50;5034990;28;20050;-88
2020/12/13 10:27:22;;;;;;;26.63;17.63;;;;;;;7.76;91.32;99998.94;5035019;28;20072;-86
2020/12/13 10:29:48;;;;;;;28.40;19.08;;;;;;;7.90;91.17;100012.38;5034037;28;20045;-86
2020/12/13 10:32:16;;;;;;;26.95;17.50;;;;;;;7.96;90.60;100017.41;5024799;28;20045;-87
2020/12/13 10:34:43;;;;;;;22.48;16.08;;;;;;;7.94;90.46;100013.97;5034513;28;20049;-87
2020/12/13 10:37:10;;;;;;;22.98;16.13;;;;;;;8.04;90.19;100017.94;5031283;28;20050;-86
2020/12/13 10:39:36;;;;;;;24.63;16.30;;;;;;;8.08;90.25;100016.88;5030854;28;20531;-85
2020/12/13 10:42:05;;;;;;;25.05;15.52;;;;;;;8.20;89.59;100012.00;5032708;28;20049;-86
2020/12/13 10:44:31;;;;;;;22.13;14.27;;;;;;;8.20;89.03;100015.50;5038909;28;20088;-87
2020/12/13 10:46:58;;;;;;;20.50;13.18;;;;;;;8.25;89.32;100020.56;5040408;28;20159;-89
2020/12/13 10:49:31;;;;;;;20.98;13.57;;;;;;;8.32;88.68;100027.34;5046506;28;20045;-86
2020/12/13 10:52:03;;;;;;;18.60;13.10;;;;;;;8.29;88.54;100017.75;5041127;28;20046;-87
2020/12/13 10:54:29;;;;;;;22.50;14.20;;;;;;;8.40;88.63;100028.72;5038222;28;20072;-88
2020/12/13 10:56:56;;;;;;;21.77;14.43;;;;;;;8.41;87.67;100021.66;5038848;28;20092;-88
2020/12/13 10:59:23;;;;;;;18.92;13.70;;;;;;;8.44;88.12;100024.16;5034352;28;20057;-87
2020/12/13 11:01:49;;;;;;;19.13;13.45;;;;;;;8.50;87.78;100020.41;5040575;28;20117;-86
2020/12/13 11:04:19;;;;;;;19.00;13.30;;;;;;;8.51;87.69;100022.09;5038179;28;20065;-88
2020/12/13 11:06:47;;;;;;;19.23;13.65;;;;;;;8.46;87.69;100018.81;5034401;28;20049;-89
2020/12/13 11:09:13;;;;;;;21.05;13.65;;;;;;;8.45;87.62;100023.25;5034507;28;20076;-87
2020/12/13 11:11:41;;;;;;;20.65;12.68;;;;;;;8.45;87.75;100015.31;5032709;28;20052;-87
2020/12/13 11:14:10;;;;;;;19.88;12.77;;;;;;;8.52;87.61;100018.53;5043537;28;20041;-87
2020/12/13 11:16:36;;;;;;;19.70;13.25;;;;;;;8.54;87.36;100008.78;5044607;28;20069;-85
2020/12/13 11:19:05;;;;;;;19.20;12.77;;;;;;;8.57;87.47;100012.13;5046084;28;20042;-88
2020/12/13 11:21:33;;;;;;;17.50;12.45;;;;;;;8.59;87.06;100014.72;5050880;28;20057;-89
2020/12/13 11:24:03;;;;;;;20.13;13.20;;;;;;;8.59;87.11;100015.56;5046549;28;20050;-87
2020/12/13 11:26:29;;;;;;;19.65;12.65;;;;;;;8.56;87.12;100010.41;5035751;28;20049;-87
2020/12/13 11:28:56;;;;;;;20.05;11.88;;;;;;;8.60;87.12;100022.56;5051651;28;20056;-87
2020/12/13 11:31:37;;;;;;;;;;;;;;;8.65;86.94;100035.56;5029355;28;20054;-88
2020/12/13 11:34:05;;;;;;;22.17;12.07;;;;;;;8.64;86.31;100034.69;5033973;28;19927;-86
2020/12/13 11:36:32;;;;;;;15.15;11.13;;;;;;;8.69;86.45;100031.84;5036141;28;20077;-86
2020/12/13 11:38:58;;;;;;;18.02;11.18;;;;;;;8.69;86.20;100026.56;5033995;28;20045;-87
2020/12/13 11:41:28;;;;;;;17.13;11.35;;;;;;;8.74;85.67;100036.00;5045275;28;20050;-87
2020/12/13 11:43:56;;;;;;;16.48;11.23;;;;;;;8.75;85.72;100035.06;5044059;28;20044;-85
2020/12/13 11:46:23;;;;;;;17.27;10.98;;;;;;;8.76;85.57;100034.16;5042931;28;20053;-87
2020/12/13 11:48:50;;;;;;;14.10;10.40;;;;;;;8.73;85.56;100034.28;5031282;28;20061;-88
2020/12/13 11:51:20;;;;;;;12.90;9.30;;;;;;;8.73;85.16;100039.56;5034149;28;20049;-86